Time;durP1;ratioP1;P1;durP2;ratioP2;P2;SDS_P1;SDS_P2;PMS_P1;PMS_P2;Temp;Humidity;BMP_temperature;BMP_pressure;BME280_temperature;BME280_humidity;BME280_pressure;Samples;Min_cycle;Max_cycle;Signal;HPM_P1;HPM_P2
2021/10/26 00:02:17;;;;;;;1999.90;999.90;;;20.70;63.20;;;;;;4995692;28;20290;-74
2021/10/26 00:04:44;;;;;;;1999.90;999.90;;;20.80;61.70;;;;;;4995613;28;20175;-75
2021/10/26 00:07:11;;;;;;;1999.90;999.90;;;20.70;61.60;;;;;;4995433;28;20246;-72
2021/10/26 00:09:37;;;;;;;1999.90;999.90;;;20.80;61.50;;;;;;4994958;28;20171;-72
2021/10/26 00:12:05;;;;;;;1999.90;999.90;;;20.80;60.60;;;;;;4995436;28;20168;-73
2021/10/26 00:14:32;;;;;;;1999.90;999.90;;;20.80;59.90;;;;;;4995278;28;20238;-72
2021/10/26 00:16:59;;;;;;;1999.90;999.90;;;20.80;59.20;;;;;;4994749;28;20218;-71
2021/10/26 00:19:25;;;;;;;1999.90;999.90;;;20.90;59.10;;;;;;4995324;28;20249;-72
2021/10/26 00:21:53;;;;;;;1999.90;999.90;;;21.00;59.20;;;;;;4995233;28;20206;-72
2021/10/26 00:24:19;;;;;;;1999.90;999.90;;;21.00;58.90;;;;;;4993854;28;20630;-71
2021/10/26 00:26:47;;;;;;;1999.90;999.90;;;21.00;58.80;;;;;;4994974;28;20175;-71
2021/10/26 00:29:14;;;;;;;1999.90;999.90;;;20.80;59.40;;;;;;4995317;28;20963;-68
2021/10/26 00:31:41;;;;;;;1999.90;999.90;;;20.80;58.80;;;;;;4994051;28;20570;-70
2021/10/26 00:34:08;;;;;;;1999.90;999.90;;;20.80;59.50;;;;;;4995180;28;20629;-73
2021/10/26 00:36:35;;;;;;;1999.90;999.90;;;20.80;59.30;;;;;;4994662;28;20163;-74
2021/10/26 00:39:03;;;;;;;1999.90;999.90;;;20.80;60.80;;;;;;4994688;28;20182;-72
2021/10/26 00:41:30;;;;;;;1999.90;999.90;;;20.80;59.60;;;;;;4994392;28;20231;-72
2021/10/26 00:43:56;;;;;;;1999.90;999.90;;;20.70;60.70;;;;;;4994939;28;20175;-72
2021/10/26 00:46:35;;;;;;;1999.90;999.90;;;20.60;60.30;;;;;;4994098;28;20187;-72
2021/10/26 00:49:04;;;;;;;1999.90;999.90;;;20.70;59.30;;;;;;4994678;28;20247;-74
2021/10/26 00:51:32;;;;;;;1999.90;999.90;;;20.70;59.30;;;;;;4994713;28;20579;-73
2021/10/26 00:53:59;;;;;;;1999.90;999.90;;;20.80;58.00;;;;;;4993949;28;20175;-71
2021/10/26 00:56:27;;;;;;;1999.90;999.90;;;20.80;60.00;;;;;;4994834;28;20171;-73
2021/10/26 00:58:54;;;;;;;1999.90;999.90;;;20.70;60.80;;;;;;4994185;28;20175;-73
2021/10/26 01:01:21;;;;;;;1999.90;999.90;;;20.60;60.50;;;;;;4994199;28;20701;-72
2021/10/26 01:03:48;;;;;;;1999.90;999.90;;;20.50;61.50;;;;;;4994131;28;20163;-73
2021/10/26 01:06:14;;;;;;;1999.90;999.90;;;20.50;59.90;;;;;;4993838;28;20190;-74
2021/10/26 01:08:41;;;;;;;1999.90;999.90;;;20.60;60.20;;;;;;4993705;28;20175;-73
2021/10/26 01:11:08;;;;;;;1999.90;999.90;;;20.60;60.40;;;;;;4994195;28;20175;-72
2021/10/26 01:13:35;;;;;;;1999.90;999.90;;;20.60;60.60;;;;;;4994552;28;20220;-71
2021/10/26 01:16:03;;;;;;;1999.90;999.90;;;20.60;61.20;;;;;;4992381;28;20521;-73
2021/10/26 01:18:29;;;;;;;1999.90;999.90;;;20.50;62.10;;;;;;4994227;28;20168;-72
2021/10/26 01:20:57;;;;;;;1999.90;999.90;;;20.40;61.50;;;;;;4994015;28;20194;-71
2021/10/26 01:23:25;;;;;;;1999.90;999.90;;;20.40;62.00;;;;;;4993943;28;20178;-70
2021/10/26 01:25:52;;;;;;;1999.90;999.90;;;20.40;62.90;;;;;;4994306;28;20530;-73
2021/10/26 01:28:19;;;;;;;1999.90;999.90;;;20.30;63.00;;;;;;4992689;28;20202;-73
2021/10/26 01:30:46;;;;;;;1999.90;999.90;;;20.30;63.10;;;;;;4993596;28;20645;-73
2021/10/26 01:33:13;;;;;;;1999.90;999.90;;;20.30;63.20;;;;;;4993474;28;20186;-72
2021/10/26 01:35:41;;;;;;;1999.90;999.90;;;20.30;63.50;;;;;;4994145;28;20175;-74
2021/10/26 01:38:08;;;;;;;1999.90;999.90;;;20.30;61.10;;;;;;4992842;28;20637;-72
2021/10/26 01:40:36;;;;;;;1999.90;999.90;;;20.40;62.30;;;;;;4993825;28;20227;-70
2021/10/26 01:43:04;;;;;;;1999.90;999.90;;;20.40;61.80;;;;;;4993400;28;20167;-74
2021/10/26 01:45:31;;;;;;;1999.90;999.90;;;20.40;61.80;;;;;;4993392;28;20175;-71
2021/10/26 01:47:58;;;;;;;1999.90;999.90;;;20.40;60.30;;;;;;4993542;28;20225;-72
2021/10/26 01:50:25;;;;;;;1999.90;999.90;;;20.40;61.80;;;;;;4993557;28;20640;-72
2021/10/26 01:52:52;;;;;;;1999.90;999.90;;;20.30;62.60;;;;;;4993116;28;20186;-72
2021/10/26 01:55:20;;;;;;;1999.90;999.90;;;20.30;63.20;;;;;;4993082;28;20230;-71
2021/10/26 01:57:47;;;;;;;1999.90;999.90;;;20.20;63.30;;;;;;4992373;28;20207;-72
2021/10/26 02:13:42;;;;;;;1999.90;999.90;;;20.10;64.30;;;;;;5110758;27;20558;-63
2021/10/26 02:16:09;;;;;;;1999.90;999.90;;;20.20;63.60;;;;;;5110758;28;20217;-63
2021/10/26 02:18:36;;;;;;;1999.90;999.90;;;20.10;65.40;;;;;;5110726;28;20168;-63
2021/10/26 02:21:03;;;;;;;1999.90;999.90;;;19.90;66.60;;;;;;5110552;28;20195;-64
2021/10/26 02:23:30;;;;;;;1999.90;999.90;;;19.80;66.70;;;;;;5110613;28;20172;-63
2021/10/26 02:25:57;;;;;;;1999.90;999.90;;;19.80;66.00;;;;;;5110507;28;20551;-63
2021/10/26 02:28:24;;;;;;;1999.90;999.90;;;19.80;65.70;;;;;;5110576;28;20251;-62
2021/10/26 02:30:50;;;;;;;1999.90;999.90;;;19.90;65.80;;;;;;5110524;28;20160;-63
2021/10/26 02:33:18;;;;;;;1999.90;999.90;;;19.80;66.00;;;;;;5110443;28;20583;-64
2021/10/26 02:35:46;;;;;;;1999.90;999.90;;;19.80;66.10;;;;;;5110272;28;20613;-64
2021/10/26 02:40:48;;;;;;;1999.90;999.90;;;19.70;66.60;;;;;;5029864;26;20291;-66
2021/10/26 02:43:15;;;;;;;1999.90;999.90;;;19.70;67.20;;;;;;5031871;28;20263;-67
2021/10/26 02:45:42;;;;;;;1999.90;999.90;;;19.80;65.30;;;;;;5049624;28;20245;-67
2021/10/26 02:48:09;;;;;;;1999.90;999.90;;;19.70;66.00;;;;;;5049533;28;20162;-68
2021/10/26 02:50:36;;;;;;;1999.90;999.90;;;19.70;66.10;;;;;;5049498;28;20158;-68
2021/10/26 02:53:03;;;;;;;1999.90;999.90;;;19.60;68.20;;;;;;5049454;28;20170;-63
2021/10/26 02:55:30;;;;;;;1999.90;999.90;;;19.80;64.80;;;;;;5049507;28;20250;-65
2021/10/26 02:57:57;;;;;;;1999.90;999.90;;;20.00;65.40;;;;;;5049429;28;20165;-65
2021/10/26 03:00:24;;;;;;;1999.90;999.90;;;20.10;64.80;;;;;;5049191;28;20165;-66
2021/10/26 03:02:51;;;;;;;1999.90;999.90;;;20.10;65.00;;;;;;5049067;28;20205;-65
2021/10/26 03:05:17;;;;;;;1999.90;999.90;;;20.00;64.50;;;;;;5049134;28;20165;-67
2021/10/26 03:07:46;;;;;;;1999.90;999.90;;;19.90;64.70;;;;;;5049126;28;20254;-66
2021/10/26 03:10:15;;;;;;;1999.90;999.90;;;19.90;64.10;;;;;;5048966;28;20535;-65
2021/10/26 03:12:42;;;;;;;1999.90;999.90;;;20.00;64.30;;;;;;5045874;28;20162;-65
2021/10/26 03:15:11;;;;;;;1999.90;999.90;;;20.00;66.10;;;;;;5035696;28;20162;-64
2021/10/26 03:17:38;;;;;;;1999.90;999.90;;;19.90;65.80;;;;;;5035647;28;20157;-65
2021/10/26 03:20:06;;;;;;;1999.90;999.90;;;19.80;65.40;;;;;;5035584;28;20172;-65
2021/10/26 03:22:33;;;;;;;1999.90;999.90;;;19.80;64.90;;;;;;5035496;28;20255;-66
2021/10/26 03:25:01;;;;;;;1999.90;999.90;;;19.80;65.30;;;;;;5035543;28;20169;-65
2021/10/26 03:27:29;;;;;;;1999.90;999.90;;;19.90;65.30;;;;;;5035617;28;20663;-67
2021/10/26 03:29:56;;;;;;;1999.90;999.90;;;20.30;61.40;;;;;;5035200;28;20170;-66
2021/10/26 03:32:23;;;;;;;1999.90;999.90;;;20.70;60.80;;;;;;5035343;28;20256;-66
2021/10/26 03:34:50;;;;;;;1999.90;999.90;;;20.60;61.10;;;;;;5035323;28;20682;-67
2021/10/26 03:37:17;;;;;;;1999.90;999.90;;;20.50;62.50;;;;;;5035301;28;20162;-65
2021/10/26 03:39:44;;;;;;;1999.90;999.90;;;20.30;64.50;;;;;;5034958;28;20210;-66
2021/10/26 03:42:11;;;;;;;1999.90;999.90;;;20.10;65.50;;;;;;5035065;28;20229;-64
2021/10/26 03:44:38;;;;;;;1999.90;999.90;;;20.00;66.40;;;;;;5035220;28;20249;-65
2021/10/26 03:47:05;;;;;;;1999.90;999.90;;;19.90;66.70;;;;;;5035297;28;20166;-65
2021/10/26 03:49:32;;;;;;;1999.90;999.90;;;19.80;65.90;;;;;;5035141;28;20600;-64
2021/10/26 03:51:59;;;;;;;1999.90;999.90;;;19.90;65.70;;;;;;5035340;28;20611;-65
2021/10/26 03:54:25;;;;;;;1999.90;999.90;;;20.00;65.20;;;;;;5035055;28;20253;-67
2021/10/26 03:56:52;;;;;;;1999.90;999.90;;;19.90;65.10;;;;;;5034864;28;20177;-67
2021/10/26 03:59:19;;;;;;;1999.90;999.90;;;20.20;62.50;;;;;;5034829;28;20174;-65
2021/10/26 04:01:46;;;;;;;1999.90;999.90;;;20.50;59.90;;;;;;5034595;28;20216;-64
2021/10/26 04:04:13;;;;;;;1999.90;999.90;;;20.80;58.40;;;;;;5034844;28;20177;-66
2021/10/26 04:06:43;;;;;;;1999.90;999.90;;;21.10;57.70;;;;;;5034661;28;20173;-66
2021/10/26 04:09:12;;;;;;;1999.90;999.90;;;21.10;58.10;;;;;;5034565;28;20189;-72
2021/10/26 04:14:38;;;;;;;1999.90;999.90;;;21.50;55.10;;;;;;5001276;28;20217;-65
2021/10/26 04:17:04;;;;;;;1999.90;999.90;;;21.50;55.30;;;;;;5034628;28;20170;-64
2021/10/26 04:19:31;;;;;;;1999.90;999.90;;;21.60;55.40;;;;;;5034589;28;20239;-66
2021/10/26 04:21:58;;;;;;;1999.90;999.90;;;21.70;54.40;;;;;;5034398;28;20205;-65
2021/10/26 04:24:25;;;;;;;1999.90;999.90;;;21.60;55.60;;;;;;5033691;28;20169;-71
2021/10/26 04:26:52;;;;;;;1999.90;999.90;;;21.60;55.00;;;;;;5034052;28;20196;-63
2021/10/26 04:29:19;;;;;;;1999.90;999.90;;;21.70;54.60;;;;;;5034387;28;20169;-66
2021/10/26 04:31:45;;;;;;;1999.90;999.90;;;21.80;53.90;;;;;;5034351;28;20529;-68
2021/10/26 04:34:12;;;;;;;1999.90;999.90;;;21.80;54.20;;;;;;5034282;28;20621;-65
2021/10/26 04:36:39;;;;;;;1999.90;999.90;;;21.70;54.90;;;;;;5034267;28;20252;-67
2021/10/26 04:39:06;;;;;;;1999.90;999.90;;;21.60;55.20;;;;;;5034195;28;20252;-71
2021/10/26 04:41:36;;;;;;;1999.90;999.90;;;21.60;55.40;;;;;;5033676;28;20595;-65
2021/10/26 04:44:04;;;;;;;1999.90;999.90;;;21.50;56.30;;;;;;5033506;28;20235;-67
2021/10/26 04:46:33;;;;;;;1999.90;999.90;;;21.40;56.90;;;;;;5033494;28;20176;-67
2021/10/26 04:49:00;;;;;;;1999.90;999.90;;;21.30;55.80;;;;;;5033489;28;20189;-66
2021/10/26 04:51:27;;;;;;;1999.90;999.90;;;21.30;56.20;;;;;;5033524;28;20208;-69
2021/10/26 04:53:54;;;;;;;1999.90;999.90;;;21.30;56.00;;;;;;5033493;28;20219;-65
2021/10/26 04:56:21;;;;;;;1999.90;999.90;;;21.40;56.40;;;;;;5033353;28;20184;-66
2021/10/26 04:58:48;;;;;;;1999.90;999.90;;;21.60;55.50;;;;;;5033311;28;20195;-66
2021/10/26 05:01:15;;;;;;;1999.90;999.90;;;21.70;55.20;;;;;;5033374;28;20292;-66
2021/10/26 05:03:42;;;;;;;1999.90;999.90;;;21.70;55.50;;;;;;5033386;28;20521;-66
2021/10/26 05:06:10;;;;;;;1999.90;999.90;;;21.70;56.00;;;;;;5033663;28;20581;-66
2021/10/26 05:08:36;;;;;;;1999.90;999.90;;;21.60;57.00;;;;;;5033442;28;20644;-66
2021/10/26 05:11:03;;;;;;;1999.90;999.90;;;21.60;55.40;;;;;;5033227;28;20173;-68
2021/10/26 05:13:32;;;;;;;1999.90;999.90;;;21.60;59.10;;;;;;5033317;28;20216;-65
2021/10/26 05:15:59;;;;;;;1999.90;999.90;;;21.60;56.00;;;;;;5032879;28;20182;-69
2021/10/26 05:18:29;;;;;;;1999.90;999.90;;;21.60;57.40;;;;;;5032994;28;20184;-66
2021/10/26 05:20:57;;;;;;;1999.90;999.90;;;21.70;56.00;;;;;;5032677;28;20202;-68
2021/10/26 05:23:24;;;;;;;1999.90;999.90;;;21.80;55.40;;;;;;5032938;28;20193;-67
2021/10/26 05:25:52;;;;;;;1999.90;999.90;;;22.00;55.60;;;;;;5032904;28;20166;-66
2021/10/26 05:28:19;;;;;;;1999.90;999.90;;;22.00;55.20;;;;;;5032697;28;20201;-66
2021/10/26 05:30:46;;;;;;;1999.90;999.90;;;22.10;57.10;;;;;;5032491;28;20158;-68
2021/10/26 05:33:13;;;;;;;1999.90;999.90;;;22.20;55.40;;;;;;5032505;28;20177;-66
2021/10/26 05:35:40;;;;;;;1999.90;999.90;;;22.30;55.40;;;;;;5032480;28;20161;-67
2021/10/26 05:38:07;;;;;;;1999.90;999.90;;;22.50;54.00;;;;;;5032617;28;20208;-66
2021/10/26 05:40:33;;;;;;;1999.90;999.90;;;22.60;54.10;;;;;;5032149;28;20225;-67
2021/10/26 05:43:00;;;;;;;1999.90;999.90;;;23.00;52.30;;;;;;5030904;28;20220;-65
2021/10/26 05:45:27;;;;;;;1999.90;999.90;;;23.40;51.70;;;;;;5032352;28;20248;-66
2021/10/26 05:47:54;;;;;;;1999.90;999.90;;;23.60;51.60;;;;;;5032328;28;20620;-66
2021/10/26 05:50:21;;;;;;;1999.90;999.90;;;23.70;51.00;;;;;;5032186;28;20178;-68
2021/10/26 05:52:48;;;;;;;1999.90;999.90;;;23.80;50.40;;;;;;5032295;28;20702;-70
2021/10/26 05:55:14;;;;;;;1999.90;999.90;;;23.70;50.90;;;;;;5032409;28;20589;-72
2021/10/26 05:57:41;;;;;;;1999.90;999.90;;;23.70;50.90;;;;;;5032543;28;20224;-68
2021/10/26 06:00:08;;;;;;;1999.90;999.90;;;23.70;50.20;;;;;;5032184;28;20533;-68
2021/10/26 06:02:35;;;;;;;1999.90;999.90;;;23.60;50.30;;;;;;5032167;28;20205;-70
2021/10/26 06:05:02;;;;;;;1999.90;999.90;;;23.60;49.40;;;;;;5031664;28;20173;-69
2021/10/26 06:07:30;;;;;;;1999.90;999.90;;;23.70;48.90;;;;;;5031337;28;20533;-67
2021/10/26 06:09:56;;;;;;;1999.90;999.90;;;23.80;49.30;;;;;;5030730;28;20174;-66
2021/10/26 06:12:29;;;;;;;1999.90;999.90;;;23.90;48.00;;;;;;5031287;28;20173;-66
2021/10/26 06:14:55;;;;;;;1999.90;999.90;;;24.00;47.10;;;;;;5033193;28;20166;-75
2021/10/26 06:17:24;;;;;;;1999.90;999.90;;;24.20;46.90;;;;;;5029503;28;20170;-75
2021/10/26 06:19:51;;;;;;;1999.90;999.90;;;24.30;46.40;;;;;;5030413;28;20419;-72
2021/10/26 06:22:18;;;;;;;1999.90;999.90;;;24.60;47.20;;;;;;5012856;28;20659;-71
2021/10/26 06:24:46;;;;;;;1999.90;999.90;;;24.90;47.30;;;;;;5028215;28;20180;-74
2021/10/26 06:27:13;;;;;;;1999.90;999.90;;;25.10;46.30;;;;;;5041343;28;20177;-75
2021/10/26 06:29:41;;;;;;;1999.90;999.90;;;25.30;44.90;;;;;;5039172;28;20188;-73
2021/10/26 06:32:08;;;;;;;1999.90;999.90;;;25.40;45.00;;;;;;5012683;28;20177;-70
2021/10/26 06:34:35;;;;;;;1999.90;999.90;;;25.60;42.90;;;;;;5031015;28;20170;-70
2021/10/26 06:37:02;;;;;;;1999.90;999.90;;;25.80;44.70;;;;;;5030195;28;20577;-72
2021/10/26 06:39:29;;;;;;;1999.90;999.90;;;25.80;43.20;;;;;;5013983;28;20699;-70
2021/10/26 06:41:56;;;;;;;1999.90;999.90;;;25.80;43.30;;;;;;5031532;28;20198;-72
2021/10/26 06:44:23;;;;;;;1999.90;999.90;;;25.70;43.60;;;;;;5031471;28;20166;-70
2021/10/26 06:46:49;;;;;;;1999.90;999.90;;;25.80;42.50;;;;;;5029872;28;20459;-65
2021/10/26 06:49:16;;;;;;;1999.90;999.90;;;25.90;43.30;;;;;;5033079;28;20176;-69
2021/10/26 06:51:43;;;;;;;1999.90;999.90;;;26.10;44.80;;;;;;5034351;28;20220;-72
2021/10/26 06:54:11;;;;;;;1999.90;999.90;;;26.20;43.90;;;;;;5035109;28;20178;-69
2021/10/26 06:56:38;;;;;;;1999.90;999.90;;;26.20;44.10;;;;;;5035275;28;20184;-68
2021/10/26 06:59:05;;;;;;;1999.90;999.90;;;26.10;43.90;;;;;;5033504;28;20182;-66
2021/10/26 07:01:31;;;;;;;1999.90;999.90;;;26.10;45.00;;;;;;5033193;28;20204;-65
2021/10/26 07:03:58;;;;;;;1999.90;999.90;;;26.10;44.70;;;;;;5032235;28;20182;-67
2021/10/26 07:06:25;;;;;;;1999.90;999.90;;;26.10;45.80;;;;;;5035655;28;20172;-72
2021/10/26 07:08:51;;;;;;;1999.90;999.90;;;26.00;43.60;;;;;;5030385;28;20213;-72
2021/10/26 07:11:18;;;;;;;1999.90;999.90;;;25.90;44.10;;;;;;5034359;28;20170;-71
2021/10/26 07:13:45;;;;;;;1999.90;999.90;;;25.90;44.60;;;;;;5036654;28;20180;-71
2021/10/26 07:16:12;;;;;;;1999.90;999.90;;;26.00;45.00;;;;;;5031425;28;20224;-67
2021/10/26 07:31:12;;;;;;;1999.90;999.90;;;26.40;49.20;;;;;;5027597;28;20940;-66
2021/10/26 07:33:38;;;;;;;1999.90;999.90;;;27.10;39.90;;;;;;5010932;28;20181;-66
2021/10/26 07:36:08;;;;;;;1999.90;999.90;;;27.10;42.90;;;;;;5019160;28;20424;-66
2021/10/26 07:38:40;;;;;;;1999.90;999.90;;;27.30;43.30;;;;;;5011807;28;20350;-65
2021/10/26 07:41:11;;;;;;;1999.90;999.90;;;27.20;40.80;;;;;;5020183;28;20170;-67
2021/10/26 07:43:38;;;;;;;1999.90;999.90;;;27.30;39.10;;;;;;5009383;28;20159;-71
2021/10/26 07:46:06;;;;;;;1999.90;999.90;;;27.30;39.80;;;;;;5014556;28;20197;-71
2021/10/26 07:48:33;;;;;;;1999.90;999.90;;;27.30;41.30;;;;;;5017484;28;20605;-70
2021/10/26 07:51:02;;;;;;;1999.90;999.90;;;27.50;41.70;;;;;;5008453;28;20179;-69
2021/10/26 07:53:31;;;;;;;1999.90;999.90;;;27.50;39.40;;;;;;5008316;28;20183;-69
2021/10/26 07:55:58;;;;;;;1999.90;999.90;;;27.20;39.60;;;;;;4988893;28;20179;-68
2021/10/26 07:58:26;;;;;;;1999.90;999.90;;;27.30;41.60;;;;;;4989585;28;20176;-68
2021/10/26 08:00:54;;;;;;;1999.90;999.90;;;27.50;38.70;;;;;;5008965;28;20190;-69
2021/10/26 08:03:24;;;;;;;1999.90;999.90;;;27.50;39.50;;;;;;5010952;28;20202;-71
2021/10/26 08:05:53;;;;;;;1999.90;999.90;;;27.20;38.10;;;;;;5019359;28;20683;-62
2021/10/26 08:08:21;;;;;;;1999.90;999.90;;;27.10;39.20;;;;;;5007914;28;20182;-69
2021/10/26 08:10:47;;;;;;;1999.90;999.90;;;27.10;39.80;;;;;;5008262;28;20171;-67
2021/10/26 08:13:15;;;;;;;1999.90;999.90;;;27.40;39.80;;;;;;5007852;28;20167;-73
2021/10/26 08:15:42;;;;;;;1999.90;999.90;;;27.70;40.30;;;;;;5007932;28;20169;-67
2021/10/26 08:18:08;;;;;;;1999.90;999.90;;;28.10;39.60;;;;;;5008268;28;20197;-69
2021/10/26 08:20:35;;;;;;;1999.90;999.90;;;28.40;38.70;;;;;;5007785;28;20195;-66
2021/10/26 08:23:02;;;;;;;1999.90;999.90;;;28.50;38.60;;;;;;5008090;28;20202;-64
2021/10/26 08:25:33;;;;;;;1999.90;999.90;;;28.60;38.00;;;;;;5007117;28;20175;-62
2021/10/26 08:28:00;;;;;;;1999.90;999.90;;;29.20;38.00;;;;;;5008050;28;20175;-64
2021/10/26 08:30:36;;;;;;;1999.90;999.90;;;29.70;36.30;;;;;;5003766;28;20211;-65
2021/10/26 08:33:36;;;;;;;1999.90;999.90;;;29.70;35.20;;;;;;4995026;28;20173;-65
2021/10/26 08:35:50;;;;;;;1999.90;999.90;;;30.10;34.30;;;;;;4994944;28;20183;-67
2021/10/26 08:38:17;;;;;;;1999.90;999.90;;;30.60;35.00;;;;;;4994260;28;20175;-66
2021/10/26 08:40:48;;;;;;;1999.90;999.90;;;30.50;34.00;;;;;;4994832;28;20179;-65
2021/10/26 08:43:23;;;;;;;1999.90;999.90;;;30.40;33.40;;;;;;4994860;28;20163;-65
2021/10/26 08:45:51;;;;;;;1999.90;999.90;;;30.40;33.00;;;;;;4994350;28;20250;-66
2021/10/26 08:48:21;;;;;;;1999.90;999.90;;;31.20;32.50;;;;;;4994267;28;20262;-65
2021/10/26 08:50:54;;;;;;;1999.90;999.90;;;31.00;31.90;;;;;;4994387;28;20175;-66
2021/10/26 08:53:21;;;;;;;1999.90;999.90;;;30.10;32.60;;;;;;4993777;28;20159;-67
2021/10/26 08:55:58;;;;;;;1999.90;999.90;;;30.20;35.70;;;;;;4994300;28;20175;-67
2021/10/26 08:58:30;;;;;;;1999.90;999.90;;;30.40;35.70;;;;;;4994227;28;20560;-66
2021/10/26 09:01:00;;;;;;;1999.90;999.90;;;30.40;35.90;;;;;;4993395;28;20725;-63
2021/10/26 09:03:35;;;;;;;1999.90;999.90;;;30.90;35.40;;;;;;4993997;28;20179;-63
2021/10/26 09:06:03;;;;;;;1999.90;999.90;;;31.50;32.30;;;;;;4994008;28;20197;-64
2021/10/26 09:08:30;;;;;;;1999.90;999.90;;;32.00;33.30;;;;;;4993888;28;20167;-66
2021/10/26 09:11:04;;;;;;;1999.90;999.90;;;32.70;33.50;;;;;;4993666;28;20649;-64
2021/10/26 09:19:39;;;;;;;1999.90;999.90;;;32.20;32.10;;;;;;4981401;28;20426;-66
2021/10/26 09:22:06;;;;;;;1999.90;999.90;;;31.60;32.70;;;;;;4993672;28;20389;-70
2021/10/26 09:24:34;;;;;;;1999.90;999.90;;;31.00;33.90;;;;;;4992258;28;20410;-63
2021/10/26 09:27:05;;;;;;;1999.90;999.90;;;30.80;34.00;;;;;;4993627;28;20740;-65
2021/10/26 09:29:48;;;;;;;1999.90;999.90;;;30.80;34.00;;;;;;4992436;28;20828;-68
2021/10/26 09:32:15;;;;;;;1999.90;999.90;;;30.80;34.90;;;;;;4993791;28;20155;-67
2021/10/26 09:46:34;;;;;;;1999.90;999.90;;;30.60;32.60;;;;;;5102787;27;20556;-64
2021/10/26 09:49:01;;;;;;;1999.90;999.90;;;30.20;34.00;;;;;;5079469;28;20179;-64
2021/10/26 09:51:32;;;;;;;1999.90;999.90;;;30.60;35.40;;;;;;5078105;28;20217;-63
2021/10/26 09:53:58;;;;;;;1999.90;999.90;;;31.10;33.00;;;;;;5078456;28;20275;-65
2021/10/26 09:56:25;;;;;;;1999.90;999.90;;;31.00;31.80;;;;;;5086508;28;20267;-70
2021/10/26 09:59:12;;;;;;;1999.90;999.90;;;30.40;33.40;;;;;;5088849;28;20394;-67
2021/10/26 10:13:56;;;;;;;1999.90;999.90;;;30.10;33.40;;;;;;5110323;27;20533;-74
2021/10/26 10:16:28;;;;;;;1999.90;999.90;;;30.40;33.90;;;;;;5089794;28;20175;-71
2021/10/26 10:18:58;;;;;;;1999.90;999.90;;;30.50;33.00;;;;;;5089890;28;20153;-62
2021/10/26 10:21:29;;;;;;;1999.90;999.90;;;30.40;33.50;;;;;;5090195;28;20229;-59
2021/10/26 10:23:59;;;;;;;1999.90;999.90;;;31.00;33.80;;;;;;5089610;28;20291;-63
2021/10/26 10:26:28;;;;;;;1999.90;999.90;;;31.10;34.10;;;;;;5089653;28;20176;-64
2021/10/26 10:28:57;;;;;;;1999.90;999.90;;;30.50;33.20;;;;;;5088614;28;20403;-70
2021/10/26 10:31:27;;;;;;;1999.90;999.90;;;30.20;33.20;;;;;;5089622;28;20460;-68
2021/10/26 10:33:57;;;;;;;1999.90;999.90;;;30.30;34.90;;;;;;5089492;28;20199;-67
2021/10/26 10:36:24;;;;;;;1999.90;999.90;;;30.10;34.00;;;;;;5087022;28;20411;-64
2021/10/26 10:38:53;;;;;;;1999.90;999.90;;;29.70;33.60;;;;;;5087353;28;20263;-62
2021/10/26 10:41:21;;;;;;;1999.90;999.90;;;29.70;34.10;;;;;;5088803;28;20691;-65
2021/10/26 10:43:49;;;;;;;1999.90;999.90;;;29.10;34.60;;;;;;5088384;28;20618;-65
2021/10/26 10:46:41;;;;;;;1999.90;999.90;;;29.30;34.70;;;;;;5088577;28;20175;-63
2021/10/26 10:49:20;;;;;;;1999.90;999.90;;;29.70;37.10;;;;;;5077064;28;20187;-63
2021/10/26 10:51:56;;;;;;;1999.90;999.90;;;29.30;35.70;;;;;;5088557;28;20163;-64
2021/10/26 10:54:56;;;;;;;1999.90;999.90;;;29.70;34.50;;;;;;5086638;28;20175;-63
2021/10/26 10:57:28;;;;;;;1999.90;999.90;;;29.90;33.40;;;;;;5087878;28;20543;-63
2021/10/26 10:59:56;;;;;;;1999.90;999.90;;;30.10;34.50;;;;;;5087715;28;20168;-64
2021/10/26 11:02:49;;;;;;;1999.90;999.90;;;30.60;31.50;;;;;;5087848;28;20202;-69
2021/10/26 11:05:40;;;;;;;1999.90;999.90;;;30.30;34.10;;;;;;5088021;28;20164;-65
2021/10/26 11:08:10;;;;;;;1999.90;999.90;;;29.50;35.80;;;;;;5088208;28;20152;-63
2021/10/26 11:10:49;;;;;;;1999.90;999.90;;;29.40;38.10;;;;;;5088235;28;20171;-64
2021/10/26 11:13:24;;;;;;;1999.90;999.90;;;29.30;35.50;;;;;;5081640;28;20220;-65
2021/10/26 11:15:53;;;;;;;1999.90;999.90;;;29.40;35.80;;;;;;5074320;28;20514;-65
2021/10/26 11:18:40;;;;;;;1999.90;999.90;;;29.50;34.40;;;;;;5078499;28;20180;-64
2021/10/26 11:21:09;;;;;;;1999.90;999.90;;;29.90;34.50;;;;;;5094322;28;20174;-65
2021/10/26 11:23:45;;;;;;;1999.90;999.90;;;30.50;34.10;;;;;;5094339;28;21043;-65
2021/10/26 11:26:20;;;;;;;1999.90;999.90;;;30.70;34.10;;;;;;5095160;28;20156;-65
2021/10/26 11:28:57;;;;;;;1999.90;999.90;;;30.50;33.20;;;;;;5093682;28;20166;-68
2021/10/26 11:31:26;;;;;;;1999.90;999.90;;;30.70;32.80;;;;;;5094806;28;20163;-70
2021/10/26 11:33:59;;;;;;;1999.90;999.90;;;31.20;33.00;;;;;;5094154;28;20163;-66
2021/10/26 11:36:33;;;;;;;1999.90;999.90;;;31.10;32.60;;;;;;5094572;28;20156;-71
2021/10/26 11:39:10;;;;;;;1999.90;999.90;;;31.20;33.20;;;;;;5094054;28;20167;-70
2021/10/26 11:41:42;;;;;;;1999.90;999.90;;;31.20;31.40;;;;;;5092746;28;20222;-70
2021/10/26 11:44:12;;;;;;;1999.90;999.90;;;31.10;30.50;;;;;;5094324;28;20168;-70
2021/10/26 11:46:45;;;;;;;1999.90;999.90;;;31.20;31.80;;;;;;5094214;28;20515;-72
2021/10/26 11:49:19;;;;;;;1999.90;999.90;;;30.90;32.30;;;;;;5093700;28;20213;-65
2021/10/26 11:51:57;;;;;;;1999.90;999.90;;;30.60;31.90;;;;;;5094175;28;20159;-70
2021/10/26 11:54:50;;;;;;;1999.90;999.90;;;30.20;31.90;;;;;;5094163;28;20172;-65
2021/10/26 11:57:22;;;;;;;1999.90;999.90;;;29.90;32.30;;;;;;5093659;28;20148;-65
2021/10/26 11:59:51;;;;;;;1999.90;999.90;;;29.70;32.80;;;;;;5094398;28;20221;-72
2021/10/26 12:02:22;;;;;;;1999.90;999.90;;;29.60;33.00;;;;;;5093325;28;20207;-71
2021/10/26 12:05:00;;;;;;;1999.90;999.90;;;29.70;37.10;;;;;;5093539;28;20171;-63
2021/10/26 12:07:30;;;;;;;1999.90;999.90;;;29.50;36.60;;;;;;5093189;28;20228;-64
2021/10/26 12:10:10;;;;;;;1999.90;999.90;;;29.60;37.70;;;;;;5094178;28;20613;-69
2021/10/26 12:12:38;;;;;;;1999.90;999.90;;;29.90;39.30;;;;;;5092826;28;20207;-64
2021/10/26 12:37:32;;;;;;;1999.90;999.90;;;30.10;37.70;;;;;;5014682;27;2717107;-81
2021/10/26 12:40:02;;;;;;;1999.90;999.90;;;31.40;29.50;;;;;;5088932;28;20190;-82
2021/10/26 12:42:32;;;;;;;1999.90;999.90;;;31.30;30.60;;;;;;5109751;28;20247;-81
2021/10/26 12:44:59;;;;;;;1999.90;999.90;;;31.50;30.90;;;;;;5109057;28;20174;-82
2021/10/26 12:47:29;;;;;;;1999.90;999.90;;;31.70;30.40;;;;;;5108809;28;20171;-81
2021/10/26 12:49:57;;;;;;;1999.90;999.90;;;31.80;30.70;;;;;;5091085;28;20172;-81
2021/10/26 12:52:24;;;;;;;1999.90;999.90;;;31.90;30.70;;;;;;5109250;28;20241;-82
2021/10/26 12:54:52;;;;;;;1999.90;999.90;;;31.70;31.80;;;;;;5108726;28;20536;-81
2021/10/26 12:57:38;;;;;;;1999.90;999.90;;;31.90;31.80;;;;;;5109751;28;20167;-84
2021/10/26 13:00:21;;;;;;;1999.90;999.90;;;31.70;31.40;;;;;;5109046;28;20171;-83
2021/10/26 13:02:48;;;;;;;1999.90;999.90;;;31.60;31.00;;;;;;5109127;28;20623;-84
2021/10/26 13:05:15;;;;;;;1999.90;999.90;;;31.70;31.40;;;;;;5108390;28;20544;-82
2021/10/26 13:07:42;;;;;;;1999.90;999.90;;;31.90;32.10;;;;;;5107900;28;20256;-82
2021/10/26 13:22:22;;;;;;;1999.90;999.90;;;32.40;30.60;;;;;;5090192;27;20607;-64
2021/10/26 13:24:48;;;;;;;1999.90;999.90;;;31.90;30.60;;;;;;5090148;28;20304;-65
2021/10/26 13:27:16;;;;;;;1999.90;999.90;;;32.00;31.70;;;;;;5090100;28;20503;-64
2021/10/26 13:29:45;;;;;;;1999.90;999.90;;;32.30;32.70;;;;;;5088697;28;20168;-65
2021/10/26 13:32:20;;;;;;;1999.90;999.90;;;32.20;31.20;;;;;;5089882;28;20258;-65
2021/10/26 13:34:51;;;;;;;1999.90;999.90;;;32.00;31.40;;;;;;5089759;28;20171;-64
2021/10/26 13:37:20;;;;;;;1999.90;999.90;;;32.00;31.40;;;;;;5089945;28;20160;-65
2021/10/26 13:39:48;;;;;;;1999.90;999.90;;;31.90;31.60;;;;;;5089867;28;20163;-64
2021/10/26 13:42:16;;;;;;;1999.90;999.90;;;32.00;31.90;;;;;;5089732;28;20156;-64
2021/10/26 13:44:43;;;;;;;1999.90;999.90;;;31.90;32.30;;;;;;5089705;28;20192;-65